»·PEaware :: N2710U KRIV-KSNA

N2710U :: KRIV-KSNA

FLIGHT INFORMATION

Flight Status: Arrived
Operator: Privately registered:
United States
More flights under this callsign
Pilot: Nathan P. (3026)
Aircraft: CESSNA T210 TURBO CENTURION
(T210)
More flights by this aircraft type
Origin: KRIV March ARB
United States
Destination: KSNA John Wayne-Orange Co
United States
More flights between these airports :: More routes between these airports
Route: PDZ PDZ270/13 RNDAL V363 POXKU V8 SLI
File this flight plan on PilotEdge
Remarks: TEC route ONTP10
Altitude:
(Current/Filed)
4,000ft
Speed:
(Current/Filed)
140kts
Departed: 12-Mar-20 03:54 PM
Arrived: 12-Mar-20 04:27 PM
Distance/Time
Traveled:
33nm/0:33
Distance/Time
To Go:
Arrived

Flight Plot

Page will automatically refresh every two minutes.

Flight plan parsing failed; only flown route is shown


Map Options




Map Legend


Flown Route
Filed Route
Departure Airport
Arrival Airport
Navaid (VOR, NDB)
Fix

Horizontal Profiles

Position Reports

Time Latitude Longitude Heading Altitude Ground
Speed
12-Mar-20 15:31 33.892110 -117.255139 135 1514ft 0kts
12-Mar-20 15:32 33.892110 -117.255139 135 1514ft 0kts
12-Mar-20 15:33 33.892110 -117.255139 135 1514ft 0kts
12-Mar-20 15:34 33.892110 -117.255139 135 1514ft 0kts
12-Mar-20 15:35 33.892110 -117.255139 135 1514ft 0kts
12-Mar-20 15:36 33.892110 -117.255139 135 1514ft 0kts
12-Mar-20 15:37 33.892110 -117.255139 135 1514ft 0kts
12-Mar-20 15:38 33.892110 -117.255139 135 1514ft 0kts
12-Mar-20 15:39 33.892110 -117.255139 135 1514ft 0kts
12-Mar-20 15:40 33.892110 -117.255139 135 1514ft 0kts
12-Mar-20 15:41 33.891048 -117.254814 168 1512ft 15kts
12-Mar-20 15:42 33.886699 -117.252751 153 1506ft 18kts
12-Mar-20 15:43 33.882765 -117.248397 147 1499ft 20kts
12-Mar-20 15:44 33.877606 -117.250871 206 1493ft 20kts
12-Mar-20 15:45 33.872625 -117.250345 151 1490ft 21kts
12-Mar-20 15:46 33.867006 -117.246682 153 1483ft 19kts
12-Mar-20 15:47 33.865116 -117.246896 281 1483ft 0kts
12-Mar-20 15:48 33.865116 -117.246896 281 1483ft 0kts
12-Mar-20 15:49 33.865117 -117.246896 281 1483ft 0kts
12-Mar-20 15:50 33.865117 -117.246896 281 1483ft 0kts
12-Mar-20 15:51 33.865117 -117.246896 281 1483ft 0kts
12-Mar-20 15:52 33.865218 -117.247256 290 1483ft 0kts
12-Mar-20 15:53 33.868001 -117.250429 328 1486ft 74kts
12-Mar-20 15:54 33.883539 -117.261572 328 2287ft 95kts
12-Mar-20 15:55 33.900291 -117.272411 329 3257ft 89kts
12-Mar-20 15:56 33.914504 -117.281274 327 3956ft 93kts
12-Mar-20 15:57 33.931446 -117.294462 327 4017ft 127kts
12-Mar-20 15:58 33.942276 -117.319962 269 4024ft 144kts
12-Mar-20 15:59 33.938728 -117.352356 264 4018ft 148kts
12-Mar-20 16:00 33.935003 -117.382929 264 4017ft 150kts
12-Mar-20 16:01 33.931645 -117.411954 265 4044ft 151kts
12-Mar-20 16:02 33.928275 -117.441477 265 4045ft 152kts
12-Mar-20 16:03 33.924943 -117.470648 265 4046ft 152kts
12-Mar-20 16:04 33.921384 -117.501756 265 4048ft 152kts
12-Mar-20 16:05 33.919091 -117.533559 284 4047ft 150kts
12-Mar-20 16:06 33.919734 -117.564133 273 4040ft 125kts
12-Mar-20 16:07 33.919513 -117.589188 274 4051ft 105kts
12-Mar-20 16:08 33.919627 -117.614340 275 4064ft 117kts
12-Mar-20 16:09 33.919796 -117.643050 275 4053ft 125kts
12-Mar-20 16:10 33.919644 -117.672647 273 4045ft 127kts
12-Mar-20 16:11 33.918875 -117.703734 274 4035ft 122kts
12-Mar-20 16:12 33.907560 -117.726503 226 3943ft 118kts
12-Mar-20 16:13 33.889341 -117.741054 210 3949ft 118kts
12-Mar-20 16:14 33.868117 -117.751431 199 3912ft 121kts
12-Mar-20 16:15 33.845414 -117.760896 209 3727ft 124kts
12-Mar-20 16:16 33.824263 -117.774615 212 3390ft 131kts
12-Mar-20 16:17 33.802144 -117.789370 208 2820ft 137kts
12-Mar-20 16:18 33.779492 -117.802987 209 2267ft 135kts
12-Mar-20 16:19 33.759922 -117.815716 208 1732ft 114kts
12-Mar-20 16:20 33.744380 -117.825104 207 1451ft 100kts
12-Mar-20 16:21 33.728824 -117.834505 210 1225ft 99kts
12-Mar-20 16:22 33.715179 -117.843610 210 897ft 85kts
12-Mar-20 16:23 33.701857 -117.852251 209 590ft 84kts
12-Mar-20 16:24 33.688941 -117.860412 210 274ft 84kts
12-Mar-20 16:25 33.677783 -117.867503 208 60ft 47kts
12-Mar-20 16:26 33.674360 -117.868415 132 60ft 0kts
12-Mar-20 16:27 33.674351 -117.868402 131 60ft 3kts
12-Mar-20 16:28 33.671708 -117.868403 209 60ft 26kts
12-Mar-20 16:29 33.667380 -117.872709 211 60ft 26kts
12-Mar-20 16:30 33.665937 -117.873015 210 60ft 0kts

Navigation Log

Ident Type
Flight plan parsing failed, navigation log unavailable